Time;durP1;ratioP1;P1;durP2;ratioP2;P2;SDS_P1;SDS_P2;PMS_P1;PMS_P2;Temp;Humidity;BMP_temperature;BMP_pressure;BME280_temperature;BME280_humidity;BME280_pressure;Samples;Min_cycle;Max_cycle;Signal;HPM_P1;HPM_P2
2020/12/08 00:01:19;;;;;;;4.22;3.28;;;19.60;48.00;;;;;;5042561;28;20406;-51
2020/12/08 00:03:44;;;;;;;4.15;3.35;;;19.60;47.90;;;;;;5043348;28;20032;-50
2020/12/08 00:06:12;;;;;;;4.85;3.28;;;19.60;48.00;;;;;;5043041;28;20082;-48
2020/12/08 00:08:38;;;;;;;5.30;3.30;;;19.60;48.00;;;;;;5041456;28;20482;-51
2020/12/08 00:11:03;;;;;;;4.35;3.33;;;19.60;48.00;;;;;;5042363;28;20033;-53
2020/12/08 00:13:29;;;;;;;4.00;3.25;;;19.50;48.10;;;;;;5043677;28;20128;-50
2020/12/08 00:15:54;;;;;;;4.80;2.75;;;19.50;48.10;;;;;;5042441;28;20432;-51
2020/12/08 00:18:20;;;;;;;4.18;3.25;;;19.50;48.20;;;;;;5042442;28;20154;-48
2020/12/08 00:20:45;;;;;;;3.50;2.70;;;19.40;48.20;;;;;;5042725;28;20032;-51
2020/12/08 00:23:11;;;;;;;4.95;3.10;;;19.40;48.20;;;;;;5042924;28;20436;-50
2020/12/08 00:25:36;;;;;;;3.25;2.90;;;19.40;48.20;;;;;;5042570;28;20030;-51
2020/12/08 00:28:02;;;;;;;4.55;3.00;;;19.40;48.20;;;;;;5043249;28;20033;-51
2020/12/08 00:30:27;;;;;;;3.58;3.05;;;19.40;48.20;;;;;;5042368;28;20029;-50
2020/12/08 00:32:53;;;;;;;4.60;3.30;;;19.40;48.20;;;;;;5042168;28;20040;-52
2020/12/08 00:35:19;;;;;;;3.92;3.08;;;19.30;48.20;;;;;;5042284;28;20402;-49
2020/12/08 00:37:44;;;;;;;5.38;3.05;;;19.30;48.20;;;;;;5042985;28;20403;-49
2020/12/08 00:40:10;;;;;;;3.60;2.70;;;19.30;48.20;;;;;;5042690;28;20025;-50
2020/12/08 00:42:39;;;;;;;3.03;2.72;;;19.20;48.20;;;;;;5043151;28;20068;-54
2020/12/08 00:45:08;;;;;;;3.88;2.42;;;19.20;48.20;;;;;;5042144;28;20041;-49
2020/12/08 00:47:33;;;;;;;4.88;3.10;;;19.20;48.10;;;;;;5042155;28;20029;-50
2020/12/08 00:49:59;;;;;;;4.72;2.55;;;19.10;48.20;;;;;;5042784;28;20036;-48
2020/12/08 00:52:25;;;;;;;3.65;2.90;;;19.20;48.90;;;;;;5042307;28;20047;-49
2020/12/08 00:54:50;;;;;;;3.40;2.97;;;19.10;48.20;;;;;;5042421;28;20033;-50
2020/12/08 00:57:20;;;;;;;5.82;2.88;;;19.10;48.20;;;;;;5042913;28;20025;-49
2020/12/08 00:59:45;;;;;;;3.85;3.00;;;19.10;48.30;;;;;;5042137;28;20044;-46
2020/12/08 01:02:14;;;;;;;4.30;3.10;;;19.10;48.30;;;;;;5041934;28;20033;-50
2020/12/08 01:04:39;;;;;;;4.35;3.15;;;19.00;48.40;;;;;;5042251;28;20041;-51
2020/12/08 01:07:04;;;;;;;2.80;2.40;;;19.00;48.30;;;;;;5043318;28;20022;-48
2020/12/08 01:09:30;;;;;;;4.07;2.97;;;19.00;48.40;;;;;;5042955;28;20052;-49
2020/12/08 01:11:55;;;;;;;5.22;2.88;;;18.90;48.30;;;;;;5042353;28;20048;-50
2020/12/08 01:14:21;;;;;;;4.25;2.65;;;18.90;48.40;;;;;;5041967;28;20070;-49
2020/12/08 01:16:46;;;;;;;2.90;2.60;;;19.00;48.50;;;;;;5042302;28;20329;-49
2020/12/08 01:19:13;;;;;;;2.40;2.05;;;19.10;48.70;;;;;;5042636;28;20697;-50
2020/12/08 01:21:38;;;;;;;3.33;2.55;;;19.30;48.90;;;;;;5043007;28;20036;-49
2020/12/08 01:24:04;;;;;;;3.03;2.78;;;19.40;48.90;;;;;;5041743;28;20047;-48
2020/12/08 01:26:29;;;;;;;3.03;2.70;;;19.50;48.90;;;;;;5042200;28;20037;-49
2020/12/08 01:28:55;;;;;;;5.80;2.67;;;19.60;48.90;;;;;;5041224;28;20072;-48
2020/12/08 01:31:20;;;;;;;2.72;2.38;;;19.80;49.00;;;;;;5041056;28;20021;-49
2020/12/08 01:33:46;;;;;;;3.00;2.58;;;19.80;48.80;;;;;;5041039;28;20117;-47
2020/12/08 01:36:16;;;;;;;3.83;2.53;;;19.90;48.80;;;;;;5042062;28;20041;-48
2020/12/08 01:38:41;;;;;;;3.00;2.47;;;19.90;48.60;;;;;;5026993;28;20116;-50
2020/12/08 01:41:07;;;;;;;2.42;2.10;;;19.90;48.50;;;;;;5045708;28;20025;-50
2020/12/08 01:43:32;;;;;;;3.45;2.58;;;19.90;49.10;;;;;;5045811;28;20478;-48
2020/12/08 01:45:58;;;;;;;2.08;1.88;;;19.90;48.40;;;;;;5045808;28;20079;-50
2020/12/08 01:48:23;;;;;;;3.53;2.45;;;19.90;48.30;;;;;;5045638;28;20049;-50
2020/12/08 01:50:49;;;;;;;2.33;2.00;;;19.90;48.10;;;;;;5043358;28;20486;-50
2020/12/08 01:53:15;;;;;;;3.53;2.38;;;19.90;48.10;;;;;;5043668;28;20051;-49
2020/12/08 01:55:40;;;;;;;2.47;2.28;;;19.90;48.10;;;;;;5046010;28;20053;-48
2020/12/08 01:58:13;;;;;;;3.65;2.15;;;19.80;47.90;;;;;;5045068;28;20511;-49
2020/12/08 02:00:39;;;;;;;4.28;2.58;;;19.80;47.90;;;;;;5045630;28;20029;-48
2020/12/08 02:03:04;;;;;;;3.15;2.53;;;19.80;47.80;;;;;;5045017;28;20025;-48
2020/12/08 02:05:30;;;;;;;3.38;3.08;;;19.80;47.70;;;;;;5026480;28;20028;-51
2020/12/08 02:07:55;;;;;;;4.20;2.65;;;19.70;47.60;;;;;;5045226;28;20474;-51
2020/12/08 02:10:21;;;;;;;3.45;2.63;;;19.70;47.70;;;;;;5045477;28;20091;-51
2020/12/08 02:12:46;;;;;;;4.32;2.90;;;19.70;47.60;;;;;;5044443;28;20037;-50
2020/12/08 02:15:12;;;;;;;2.90;2.70;;;19.70;47.60;;;;;;5045473;28;20528;-49
2020/12/08 02:17:37;;;;;;;4.00;2.70;;;19.70;47.70;;;;;;5044744;28;20029;-48
2020/12/08 02:20:04;;;;;;;3.10;2.70;;;19.60;47.70;;;;;;5045046;28;20139;-50
2020/12/08 02:22:30;;;;;;;3.17;2.55;;;19.60;47.70;;;;;;5044934;28;20437;-48
2020/12/08 02:24:55;;;;;;;2.85;2.47;;;19.60;47.80;;;;;;5044525;28;20032;-48
2020/12/08 02:27:21;;;;;;;2.65;2.38;;;19.50;47.80;;;;;;5043770;28;20446;-50
2020/12/08 02:29:46;;;;;;;2.97;2.33;;;19.50;47.80;;;;;;5044121;28;20489;-50
2020/12/08 02:32:12;;;;;;;3.50;2.25;;;19.50;47.90;;;;;;5045323;28;20049;-48
2020/12/08 02:34:37;;;;;;;2.83;2.55;;;19.50;48.00;;;;;;5044610;28;20032;-50
2020/12/08 02:37:03;;;;;;;3.83;2.25;;;19.50;48.00;;;;;;5044145;28;20029;-50
2020/12/08 02:39:28;;;;;;;3.55;2.53;;;19.40;47.90;;;;;;5043985;28;20445;-49
2020/12/08 02:41:54;;;;;;;3.05;2.50;;;19.40;47.90;;;;;;5043788;28;20026;-49
2020/12/08 02:44:20;;;;;;;2.58;2.38;;;19.40;47.90;;;;;;5044603;28;20070;-49
2020/12/08 02:46:49;;;;;;;3.22;2.28;;;19.40;47.90;;;;;;5043832;28;20267;-50
2020/12/08 02:49:16;;;;;;;3.33;2.80;;;19.30;47.90;;;;;;5041802;28;20523;-50
2020/12/08 02:51:42;;;;;;;3.42;2.60;;;19.30;47.90;;;;;;5044233;28;20112;-50
2020/12/08 02:54:07;;;;;;;3.22;2.53;;;19.30;47.90;;;;;;5043577;28;20032;-50
2020/12/08 02:56:42;;;;;;;2.97;2.67;;;19.20;47.90;;;;;;5043871;28;20402;-50
2020/12/08 02:59:07;;;;;;;2.67;2.47;;;19.20;47.90;;;;;;5044012;28;20115;-49
2020/12/08 03:01:33;;;;;;;2.17;1.98;;;19.20;47.90;;;;;;5043984;28;20159;-49
2020/12/08 03:03:58;;;;;;;3.33;2.60;;;19.20;47.90;;;;;;5038560;28;20405;-50
2020/12/08 03:06:24;;;;;;;2.70;2.22;;;19.10;47.90;;;;;;5043853;28;20037;-50
2020/12/08 03:08:49;;;;;;;2.40;2.17;;;19.10;47.90;;;;;;5043454;28;20029;-49
2020/12/08 03:11:15;;;;;;;2.50;2.10;;;19.10;48.00;;;;;;5044407;28;20025;-50
2020/12/08 03:13:43;;;;;;;3.65;2.53;;;19.10;48.00;;;;;;5044358;28;20044;-48
2020/12/08 03:16:09;;;;;;;2.30;2.10;;;19.00;48.10;;;;;;5043903;28;20032;-50
2020/12/08 03:18:35;;;;;;;2.38;2.17;;;19.00;48.10;;;;;;5042320;28;20033;-49
2020/12/08 03:21:00;;;;;;;3.95;2.28;;;19.00;48.10;;;;;;5043237;28;20078;-49
2020/12/08 03:23:25;;;;;;;2.70;2.22;;;18.90;48.10;;;;;;5043469;28;20032;-48
2020/12/08 03:25:51;;;;;;;4.22;2.55;;;18.90;48.10;;;;;;5044088;28;20044;-48
2020/12/08 03:28:16;;;;;;;2.67;2.13;;;18.90;48.20;;;;;;5044091;28;20406;-49
2020/12/08 03:30:42;;;;;;;2.97;2.63;;;18.90;48.20;;;;;;5043764;28;20048;-47
2020/12/08 03:33:07;;;;;;;3.10;2.42;;;18.90;48.40;;;;;;5043327;28;20040;-50
2020/12/08 03:35:33;;;;;;;2.45;2.25;;;19.00;48.10;;;;;;5043745;28;20043;-48
2020/12/08 03:37:58;;;;;;;2.65;2.40;;;19.10;48.20;;;;;;5043958;28;20032;-48
2020/12/08 03:40:24;;;;;;;2.60;2.40;;;19.20;48.30;;;;;;5043575;28;20035;-49
2020/12/08 03:42:49;;;;;;;2.17;1.80;;;19.30;48.40;;;;;;5043925;28;20021;-50
2020/12/08 03:45:15;;;;;;;3.80;2.17;;;19.40;48.50;;;;;;5043180;28;20405;-48
2020/12/08 03:47:40;;;;;;;2.80;2.53;;;19.40;48.50;;;;;;5042893;28;20266;-49
2020/12/08 03:50:06;;;;;;;2.28;1.77;;;19.50;48.50;;;;;;5043565;28;20036;-48
2020/12/08 03:52:31;;;;;;;1.98;1.88;;;19.60;49.20;;;;;;5042790;28;20117;-50
2020/12/08 03:54:57;;;;;;;3.05;2.30;;;19.60;48.40;;;;;;5043153;28;20037;-50
2020/12/08 03:57:22;;;;;;;2.35;1.90;;;19.60;48.30;;;;;;5043273;28;20460;-50
2020/12/08 03:59:48;;;;;;;2.55;2.28;;;19.70;48.30;;;;;;5043534;28;20119;-48
2020/12/08 04:02:15;;;;;;;2.38;1.98;;;19.70;48.20;;;;;;5042797;28;20029;-49
2020/12/08 04:04:40;;;;;;;2.15;1.95;;;19.70;48.20;;;;;;5041607;28;20525;-50
2020/12/08 04:07:06;;;;;;;2.20;2.00;;;19.70;48.10;;;;;;5042686;28;20040;-51
2020/12/08 04:09:31;;;;;;;2.45;2.25;;;19.70;48.00;;;;;;5042911;28;20028;-49
2020/12/08 04:11:57;;;;;;;2.47;2.28;;;19.70;47.90;;;;;;5042078;28;20047;-51
2020/12/08 04:14:22;;;;;;;2.22;2.03;;;19.60;47.90;;;;;;5044247;28;20025;-49
2020/12/08 04:16:48;;;;;;;3.90;2.35;;;19.60;47.80;;;;;;5043124;28;20052;-50
2020/12/08 04:19:16;;;;;;;2.95;2.70;;;19.60;47.60;;;;;;5043080;28;20036;-50
2020/12/08 04:21:41;;;;;;;2.50;2.28;;;19.60;47.60;;;;;;5040938;28;20107;-48
2020/12/08 04:24:07;;;;;;;2.42;2.22;;;19.60;47.60;;;;;;5043250;28;20041;-48
2020/12/08 04:26:32;;;;;;;3.97;2.17;;;19.50;47.50;;;;;;5043527;28;20055;-50
2020/12/08 04:28:58;;;;;;;2.38;2.17;;;19.60;47.60;;;;;;5043083;28;20130;-49
2020/12/08 04:31:24;;;;;;;2.40;2.20;;;19.50;47.60;;;;;;5043635;28;20025;-48
2020/12/08 04:33:49;;;;;;;2.70;2.10;;;19.50;47.60;;;;;;5040048;22;20203;-43
2020/12/08 04:36:16;;;;;;;2.50;2.03;;;19.40;47.60;;;;;;5023153;28;20068;-43
2020/12/08 04:38:41;;;;;;;2.55;2.20;;;19.40;47.60;;;;;;5005380;28;20037;-44
2020/12/08 04:41:07;;;;;;;2.70;2.30;;;19.40;47.60;;;;;;5022711;28;20026;-45
2020/12/08 04:43:33;;;;;;;2.38;2.17;;;19.40;47.60;;;;;;5004982;28;20437;-44
2020/12/08 04:45:59;;;;;;;2.28;1.80;;;19.40;47.70;;;;;;5022453;28;20034;-44
2020/12/08 04:48:24;;;;;;;2.35;2.15;;;19.40;47.70;;;;;;5006062;28;20091;-43
2020/12/08 04:50:50;;;;;;;2.17;1.98;;;19.30;47.70;;;;;;5022474;28;20112;-44
2020/12/08 04:53:16;;;;;;;2.13;1.92;;;19.30;47.70;;;;;;5022814;28;21565;-43
2020/12/08 04:55:41;;;;;;;3.53;2.17;;;19.30;47.70;;;;;;5021789;28;20034;-44
2020/12/08 04:58:08;;;;;;;2.60;2.40;;;19.20;47.60;;;;;;5022639;28;20156;-44
2020/12/08 05:00:41;;;;;;;3.22;2.47;;;19.20;47.70;;;;;;4989324;28;20417;-44
2020/12/08 05:03:06;;;;;;;2.63;2.42;;;19.20;47.60;;;;;;5022721;28;20026;-44
2020/12/08 05:05:37;;;;;;;2.78;2.38;;;19.20;47.70;;;;;;5004765;28;20087;-44
2020/12/08 05:08:13;;;;;;;2.40;2.20;;;19.20;47.80;;;;;;5022686;28;20033;-46
2020/12/08 05:10:38;;;;;;;2.70;2.50;;;19.10;47.80;;;;;;5022715;28;20036;-44
2020/12/08 05:13:08;;;;;;;2.60;2.40;;;19.10;47.70;;;;;;5025519;28;20033;-45
2020/12/08 05:15:33;;;;;;;2.55;2.35;;;19.10;47.80;;;;;;5026166;28;20132;-42
2020/12/08 05:18:11;;;;;;;4.00;2.92;;;19.10;47.80;;;;;;5007742;28;20537;-45
2020/12/08 05:20:37;;;;;;;2.85;2.55;;;19.00;47.80;;;;;;5025788;28;20045;-43
2020/12/08 05:23:03;;;;;;;2.42;2.22;;;19.00;47.80;;;;;;5025709;28;20398;-45
2020/12/08 05:25:30;;;;;;;3.10;2.67;;;19.00;47.90;;;;;;5009514;28;20080;-43
2020/12/08 05:27:59;;;;;;;2.58;2.38;;;19.00;47.90;;;;;;5026218;28;20044;-43
2020/12/08 05:30:24;;;;;;;2.75;2.42;;;18.90;47.90;;;;;;5007667;28;20530;-46
2020/12/08 05:32:50;;;;;;;3.85;3.10;;;19.00;47.90;;;;;;5025086;28;20042;-44
2020/12/08 05:35:23;;;;;;;4.32;3.08;;;19.10;47.80;;;;;;5025723;28;20040;-45
2020/12/08 05:37:53;;;;;;;3.88;2.88;;;19.10;48.00;;;;;;5025642;28;20056;-45
2020/12/08 05:40:19;;;;;;;3.13;2.83;;;19.20;48.10;;;;;;5007867;28;20037;-46
2020/12/08 05:42:46;;;;;;;4.45;2.72;;;19.30;48.20;;;;;;5007765;28;20030;-43
2020/12/08 05:45:16;;;;;;;2.88;2.40;;;19.40;48.20;;;;;;5025930;28;20038;-44
2020/12/08 05:47:44;;;;;;;2.72;2.53;;;19.40;48.20;;;;;;5026210;28;20432;-44
2020/12/08 05:50:10;;;;;;;3.75;2.53;;;19.50;48.20;;;;;;5025387;28;20509;-44
2020/12/08 05:52:39;;;;;;;4.63;2.97;;;19.50;48.20;;;;;;5024986;28;20030;-43
2020/12/08 05:55:18;;;;;;;4.38;3.53;;;19.50;48.20;;;;;;5025244;28;20550;-53
2020/12/08 05:57:44;;;;;;;5.38;4.05;;;19.60;48.10;;;;;;5007995;28;20483;-44
2020/12/08 06:00:24;;;;;;;6.38;4.50;;;19.60;47.80;;;;;;5025263;28;20049;-42
2020/12/08 06:02:50;;;;;;;6.97;4.25;;;19.50;47.40;;;;;;5025182;28;20462;-44
2020/12/08 06:05:31;;;;;;;7.78;4.18;;;19.50;47.60;;;;;;5025174;28;20026;-44
2020/12/08 06:07:58;;;;;;;11.93;4.35;;;19.50;47.70;;;;;;5024641;28;20301;-43
2020/12/08 06:10:23;;;;;;;7.38;3.60;;;19.50;47.60;;;;;;5025033;28;20033;-43
2020/12/08 06:12:59;;;;;;;5.15;3.75;;;19.50;47.60;;;;;;5025112;28;20037;-44
2020/12/08 06:15:25;;;;;;;6.50;4.82;;;19.50;47.50;;;;;;5007402;28;20052;-43
2020/12/08 06:17:51;;;;;;;10.38;4.40;;;19.50;47.40;;;;;;5025019;28;20036;-43
2020/12/08 06:20:17;;;;;;;15.40;5.43;;;19.50;47.30;;;;;;5025055;28;20029;-45
2020/12/08 06:22:58;;;;;;;11.45;4.53;;;19.50;47.10;;;;;;5024270;28;20056;-43
2020/12/08 06:25:24;;;;;;;7.78;4.47;;;19.50;46.70;;;;;;5025267;28;20490;-45
2020/12/08 06:27:50;;;;;;;6.50;4.45;;;19.40;47.00;;;;;;5007614;28;20052;-43
2020/12/08 06:30:20;;;;;;;16.25;5.88;;;19.40;47.00;;;;;;5024469;28;20402;-44
2020/12/08 06:32:46;;;;;;;12.00;6.47;;;19.40;47.10;;;;;;5024168;28;20037;-43
2020/12/08 06:35:13;;;;;;;30.77;11.18;;;19.40;47.40;;;;;;5024643;28;20041;-43
2020/12/08 06:37:44;;;;;;;11.65;8.43;;;19.40;47.50;;;;;;5025263;28;20049;-43
2020/12/08 06:40:15;;;;;;;24.02;9.45;;;19.40;47.40;;;;;;5022686;28;20498;-49
2020/12/08 06:42:40;;;;;;;21.73;10.95;;;19.30;47.50;;;;;;5022192;28;20061;-44
2020/12/08 06:45:16;;;;;;;25.20;11.23;;;19.30;47.50;;;;;;5025079;28;20072;-46
2020/12/08 06:47:41;;;;;;;23.70;11.57;;;19.30;47.50;;;;;;4998896;28;20225;-43
2020/12/08 06:50:19;;;;;;;25.25;11.40;;;19.30;47.50;;;;;;5007211;28;20108;-43
2020/12/08 06:52:56;;;;;;;23.75;11.68;;;19.30;47.50;;;;;;5023974;28;20033;-44
2020/12/08 06:55:22;;;;;;;23.33;10.57;;;19.30;47.50;;;;;;5007826;28;20148;-44
2020/12/08 06:57:47;;;;;;;22.05;11.48;;;19.30;47.50;;;;;;5006296;28;20056;-43
2020/12/08 07:00:13;;;;;;;20.88;10.63;;;19.20;47.40;;;;;;5024144;28;20148;-44
2020/12/08 07:02:49;;;;;;;27.00;11.05;;;19.20;47.40;;;;;;5005605;28;20064;-45
2020/12/08 07:05:20;;;;;;;22.73;11.05;;;19.20;47.40;;;;;;5008269;28;20037;-44
2020/12/08 07:07:46;;;;;;;20.85;10.07;;;19.20;47.50;;;;;;5006549;28;20117;-44
2020/12/08 07:10:12;;;;;;;20.33;9.40;;;19.10;47.40;;;;;;4987918;28;20121;-42
2020/12/08 07:12:50;;;;;;;20.17;9.90;;;19.10;47.40;;;;;;4988867;28;20533;-44
2020/12/08 07:15:16;;;;;;;19.55;9.68;;;19.10;47.50;;;;;;5022020;28;20107;-42
2020/12/08 07:17:42;;;;;;;20.00;9.85;;;19.10;47.50;;;;;;5022472;28;20034;-44
2020/12/08 07:20:08;;;;;;;21.88;8.75;;;19.10;47.60;;;;;;5023017;28;20037;-42
2020/12/08 07:22:41;;;;;;;18.52;8.38;;;19.10;47.50;;;;;;5022690;28;20483;-43
2020/12/08 07:25:07;;;;;;;17.83;9.30;;;19.10;47.60;;;;;;5024089;28;20036;-43
2020/12/08 07:27:33;;;;;;;21.50;9.00;;;19.00;47.50;;;;;;5005818;28;20017;-45
2020/12/08 07:29:58;;;;;;;15.55;9.18;;;19.00;47.60;;;;;;5023905;28;20025;-45
2020/12/08 07:32:28;;;;;;;23.70;9.25;;;19.00;47.50;;;;;;5023813;28;20053;-48
2020/12/08 07:34:53;;;;;;;16.38;8.40;;;19.10;47.50;;;;;;5024045;28;20044;-43
2020/12/08 07:37:19;;;;;;;19.90;8.07;;;19.10;47.40;;;;;;5022919;28;20029;-43
2020/12/08 07:39:44;;;;;;;15.73;8.50;;;19.20;47.40;;;;;;5023618;28;20099;-45
2020/12/08 07:42:10;;;;;;;16.80;7.95;;;19.20;47.50;;;;;;5023257;28;20433;-46
2020/12/08 07:44:35;;;;;;;13.15;8.23;;;19.30;47.60;;;;;;5024520;28;20053;-43
2020/12/08 07:47:01;;;;;;;15.27;8.30;;;19.30;47.40;;;;;;5023395;28;20036;-43
2020/12/08 07:49:26;;;;;;;16.98;8.77;;;19.40;47.40;;;;;;5023382;28;20037;-43
2020/12/08 07:51:52;;;;;;;14.80;7.90;;;19.40;47.40;;;;;;5022830;28;20033;-43
2020/12/08 07:54:17;;;;;;;15.35;7.95;;;19.40;47.40;;;;;;5023112;28;20465;-44
2020/12/08 07:56:43;;;;;;;14.15;7.55;;;19.40;47.30;;;;;;5005584;28;20028;-43
2020/12/08 07:59:08;;;;;;;17.13;8.00;;;19.50;47.30;;;;;;5023365;28;20030;-44
2020/12/08 08:01:38;;;;;;;14.95;7.10;;;19.40;47.30;;;;;;5022337;28;20498;-44
2020/12/08 08:04:04;;;;;;;16.98;7.90;;;19.40;47.20;;;;;;5023308;28;20059;-42
2020/12/08 08:06:29;;;;;;;13.85;7.93;;;19.50;47.20;;;;;;5023182;28;20061;-43
2020/12/08 08:08:55;;;;;;;15.70;7.88;;;19.40;47.20;;;;;;5023165;28;20017;-45
2020/12/08 08:11:20;;;;;;;14.48;7.82;;;19.40;47.20;;;;;;5022063;28;20479;-43
2020/12/08 08:13:46;;;;;;;15.57;8.52;;;19.40;47.30;;;;;;5022737;28;20060;-43
2020/12/08 08:16:13;;;;;;;17.08;8.35;;;19.40;47.30;;;;;;5024005;28;20053;-43
2020/12/08 08:18:38;;;;;;;12.02;7.55;;;19.40;47.30;;;;;;5023249;28;20036;-43
2020/12/08 08:21:04;;;;;;;13.85;7.85;;;19.40;47.30;;;;;;5022238;28;20025;-42
2020/12/08 08:23:30;;;;;;;16.77;8.00;;;19.40;47.30;;;;;;5022332;28;20398;-43
2020/12/08 08:25:59;;;;;;;13.70;7.90;;;19.30;47.20;;;;;;5022434;28;20599;-42
2020/12/08 08:28:25;;;;;;;12.38;7.65;;;19.30;47.20;;;;;;5023462;28;20402;-42
2020/12/08 08:30:51;;;;;;;10.25;7.40;;;19.30;47.40;;;;;;5005003;28;20122;-46
2020/12/08 08:33:16;;;;;;;12.40;6.95;;;19.30;47.30;;;;;;5022528;28;20049;-43
2020/12/08 08:35:41;;;;;;;12.77;7.25;;;19.30;47.40;;;;;;5022800;28;20430;-43
2020/12/08 08:38:07;;;;;;;8.70;6.30;;;19.30;47.40;;;;;;5022985;28;20128;-43
2020/12/08 08:40:33;;;;;;;13.38;6.65;;;19.20;47.40;;;;;;5005149;28;20041;-44
2020/12/08 08:42:59;;;;;;;10.18;6.22;;;19.20;47.40;;;;;;5022087;28;20042;-45
2020/12/08 08:45:25;;;;;;;11.27;6.97;;;19.20;47.40;;;;;;5022487;28;20042;-42
2020/12/08 08:47:50;;;;;;;9.88;6.75;;;19.20;47.40;;;;;;5025765;28;20029;-45
2020/12/08 08:50:16;;;;;;;13.15;6.95;;;19.20;47.40;;;;;;5027195;28;20049;-43
2020/12/08 08:52:41;;;;;;;11.60;6.35;;;19.20;47.40;;;;;;5026805;28;20034;-42
2020/12/08 08:55:09;;;;;;;11.27;6.65;;;19.20;47.40;;;;;;5026512;28;20480;-43
2020/12/08 08:57:35;;;;;;;10.27;6.22;;;19.20;47.40;;;;;;5025993;28;20030;-43
2020/12/08 09:00:01;;;;;;;10.85;6.97;;;19.10;47.40;;;;;;5026565;28;20025;-45
2020/12/08 09:02:26;;;;;;;8.05;6.15;;;19.10;47.40;;;;;;5026604;28;20033;-44
2020/12/08 09:04:52;;;;;;;9.13;6.25;;;19.10;47.40;;;;;;5025261;28;20029;-43
2020/12/08 09:07:17;;;;;;;9.90;6.10;;;19.10;47.40;;;;;;5025680;28;20033;-45
2020/12/08 09:09:43;;;;;;;7.93;4.97;;;19.10;47.50;;;;;;5027102;28;20036;-43
2020/12/08 09:12:08;;;;;;;11.05;6.05;;;19.10;47.60;;;;;;5026256;28;20345;-43
2020/12/08 09:14:34;;;;;;;7.40;6.35;;;19.10;47.60;;;;;;5008501;28;20392;-45
2020/12/08 09:16:59;;;;;;;8.05;5.78;;;19.10;47.60;;;;;;5026441;28;20033;-45
2020/12/08 09:19:25;;;;;;;7.28;5.28;;;19.10;47.60;;;;;;5026021;28;20034;-45
2020/12/08 09:21:53;;;;;;;6.28;5.22;;;19.20;47.70;;;;;;5026098;28;20030;-44
2020/12/08 09:24:18;;;;;;;7.10;5.00;;;19.30;47.80;;;;;;5026602;28;20383;-44
2020/12/08 09:26:44;;;;;;;7.05;5.63;;;19.50;48.00;;;;;;5026640;28;20026;-45
2020/12/08 09:29:09;;;;;;;5.47;4.85;;;19.60;47.90;;;;;;5026208;28;20033;-44
2020/12/08 09:31:35;;;;;;;6.10;4.90;;;19.70;47.80;;;;;;5007635;28;20049;-44
2020/12/08 09:34:00;;;;;;;7.35;5.28;;;19.70;47.70;;;;;;5026338;28;20491;-43
2020/12/08 09:36:26;;;;;;;6.85;5.25;;;19.80;47.60;;;;;;5025693;28;20037;-44
2020/12/08 09:38:51;;;;;;;6.75;5.53;;;19.90;47.50;;;;;;5025794;28;20029;-43
2020/12/08 09:41:17;;;;;;;6.03;5.40;;;19.90;47.40;;;;;;5025967;28;20522;-46
2020/12/08 09:43:42;;;;;;;5.78;4.65;;;20.00;47.30;;;;;;5025994;28;20044;-43
2020/12/08 09:46:08;;;;;;;6.65;5.07;;;20.00;47.30;;;;;;5026052;28;20029;-43
2020/12/08 09:48:33;;;;;;;9.82;5.60;;;20.00;47.20;;;;;;5025606;28;20026;-43
2020/12/08 09:50:59;;;;;;;6.18;4.93;;;20.00;47.10;;;;;;5025110;28;20041;-45
2020/12/08 09:53:24;;;;;;;7.30;5.40;;;19.90;47.00;;;;;;5025569;28;20072;-43
2020/12/08 09:55:51;;;;;;;6.45;5.18;;;20.00;47.00;;;;;;5026840;28;20029;-45
2020/12/08 09:58:16;;;;;;;5.60;4.55;;;20.00;47.10;;;;;;5024107;28;20034;-43
2020/12/08 10:00:42;;;;;;;6.28;5.15;;;19.90;46.90;;;;;;5025149;28;20033;-45
2020/12/08 10:03:08;;;;;;;7.07;4.68;;;19.90;46.90;;;;;;5025263;28;20072;-45
2020/12/08 10:05:33;;;;;;;6.18;4.97;;;19.90;46.90;;;;;;5025349;28;20482;-44
2020/12/08 10:07:59;;;;;;;6.85;5.47;;;19.90;46.90;;;;;;5025117;28;20041;-44
2020/12/08 10:10:24;;;;;;;5.22;4.72;;;19.90;47.00;;;;;;5025125;28;20383;-43
2020/12/08 10:12:50;;;;;;;6.45;4.75;;;19.90;46.90;;;;;;5025666;28;20029;-43
2020/12/08 10:15:18;;;;;;;5.32;4.35;;;19.90;46.90;;;;;;5025432;28;20029;-45
2020/12/08 10:17:44;;;;;;;5.55;5.03;;;19.90;46.90;;;;;;5008039;28;20040;-45
2020/12/08 10:20:09;;;;;;;5.82;4.60;;;19.90;46.90;;;;;;5024812;28;20148;-43
2020/12/08 10:22:35;;;;;;;6.70;4.85;;;19.90;46.80;;;;;;5024615;28;20042;-44
2020/12/08 10:25:00;;;;;;;6.55;4.78;;;19.90;46.90;;;;;;5024604;28;20087;-46
2020/12/08 10:27:26;;;;;;;5.55;4.97;;;19.80;46.70;;;;;;5025029;28;20029;-45
2020/12/08 10:29:51;;;;;;;5.88;5.28;;;19.90;46.80;;;;;;5025697;28;20113;-43
2020/12/08 10:32:17;;;;;;;5.65;4.30;;;19.90;46.80;;;;;;5024256;28;20029;-43
2020/12/08 10:34:43;;;;;;;6.60;4.60;;;19.80;46.80;;;;;;5024182;28;20037;-43
2020/12/08 10:37:09;;;;;;;5.72;4.53;;;19.80;46.80;;;;;;5025138;28;20033;-42
2020/12/08 10:39:34;;;;;;;6.43;4.68;;;19.80;46.80;;;;;;5025236;28;20021;-45
2020/12/08 10:42:00;;;;;;;6.28;4.80;;;19.80;46.70;;;;;;5046653;23;20040;-62
2020/12/08 10:44:25;;;;;;;5.10;4.60;;;19.80;46.70;;;;;;5043863;28;20079;-62
2020/12/08 10:46:51;;;;;;;5.13;4.60;;;19.80;46.80;;;;;;5045372;28;20025;-60
2020/12/08 10:49:17;;;;;;;6.55;4.65;;;19.80;46.70;;;;;;5045881;28;20132;-61
2020/12/08 10:51:43;;;;;;;4.45;4.05;;;19.80;46.70;;;;;;5044965;28;20549;-61
2020/12/08 10:54:08;;;;;;;5.90;4.55;;;19.90;46.80;;;;;;5044991;28;20033;-61
2020/12/08 10:56:34;;;;;;;4.82;4.35;;;19.90;46.70;;;;;;5045114;28;20025;-60
2020/12/08 10:58:59;;;;;;;5.15;4.65;;;19.90;46.70;;;;;;5045364;28;20728;-60
2020/12/08 11:01:25;;;;;;;4.63;4.22;;;19.90;46.90;;;;;;5045755;28;20049;-61
2020/12/08 11:03:51;;;;;;;4.55;4.15;;;19.90;46.70;;;;;;5044810;28;20033;-61
2020/12/08 11:06:24;;;;;;;4.75;4.03;;;19.90;46.60;;;;;;5040208;28;20495;-61
2020/12/08 11:08:50;;;;;;;4.63;4.13;;;19.80;46.40;;;;;;5044459;28;20094;-61
2020/12/08 11:11:25;;;;;;;4.85;3.88;;;19.80;46.40;;;;;;5044390;28;20037;-59
2020/12/08 11:13:51;;;;;;;5.38;4.05;;;19.80;46.60;;;;;;5044362;28;20106;-60
2020/12/08 11:16:17;;;;;;;4.95;4.40;;;19.80;46.20;;;;;;5044895;28;20044;-59
2020/12/08 11:18:42;;;;;;;4.90;4.30;;;19.80;46.10;;;;;;5044856;28;20044;-60
2020/12/08 11:21:08;;;;;;;8.52;4.95;;;19.80;46.10;;;;;;5042674;28;20033;-61
2020/12/08 11:23:33;;;;;;;5.63;4.00;;;19.70;46.20;;;;;;5044681;28;20039;-61
2020/12/08 11:25:59;;;;;;;5.03;4.35;;;19.70;46.20;;;;;;5044622;28;20055;-59
2020/12/08 11:28:24;;;;;;;4.80;4.25;;;19.60;46.30;;;;;;5044005;28;20040;-61
2020/12/08 11:30:50;;;;;;;5.22;4.47;;;19.60;46.40;;;;;;5043927;28;20037;-60
2020/12/08 11:33:16;;;;;;;5.00;4.03;;;19.60;46.40;;;;;;5044109;28;20029;-60
2020/12/08 11:35:41;;;;;;;4.78;3.92;;;19.50;46.40;;;;;;5042714;28;20498;-60
2020/12/08 11:38:06;;;;;;;4.60;3.70;;;19.50;46.40;;;;;;5043230;28;20029;-61
2020/12/08 11:40:32;;;;;;;5.03;4.53;;;19.50;46.50;;;;;;5042777;28;20106;-61
2020/12/08 11:42:57;;;;;;;5.00;4.32;;;19.50;46.50;;;;;;5043047;28;20037;-61
2020/12/08 11:45:23;;;;;;;4.82;4.38;;;19.50;46.40;;;;;;5042908;28;20028;-61
2020/12/08 11:47:49;;;;;;;4.32;3.92;;;19.50;46.40;;;;;;5044513;28;20103;-61
2020/12/08 11:50:14;;;;;;;4.65;4.10;;;19.50;46.40;;;;;;5044120;28;20869;-61
2020/12/08 11:52:40;;;;;;;4.57;4.05;;;19.60;46.40;;;;;;5043796;28;20036;-61
2020/12/08 11:55:06;;;;;;;4.38;3.97;;;19.60;46.30;;;;;;5043851;28;20411;-61
2020/12/08 11:57:35;;;;;;;5.35;4.55;;;19.70;46.20;;;;;;5044926;28;20033;-60
2020/12/08 12:00:02;;;;;;;4.05;3.65;;;19.80;46.10;;;;;;5043641;28;20408;-62
2020/12/08 12:02:27;;;;;;;4.70;4.22;;;19.80;46.10;;;;;;5044000;28;20449;-61
2020/12/08 12:04:53;;;;;;;4.13;3.72;;;19.90;46.20;;;;;;5042122;28;20078;-61
2020/12/08 12:07:18;;;;;;;5.07;4.53;;;19.90;46.00;;;;;;5043676;28;20040;-61
2020/12/08 12:09:44;;;;;;;4.60;4.20;;;20.00;45.90;;;;;;5044339;28;20033;-59
2020/12/08 12:12:09;;;;;;;5.32;3.88;;;20.00;45.70;;;;;;5043648;28;20029;-61
2020/12/08 12:14:35;;;;;;;4.38;3.97;;;20.10;45.60;;;;;;5041663;28;20105;-62
2020/12/08 12:17:00;;;;;;;4.18;3.78;;;20.10;45.60;;;;;;5043853;28;20021;-61
2020/12/08 12:19:26;;;;;;;4.25;3.85;;;20.10;45.50;;;;;;5042116;28;20078;-62
2020/12/08 12:21:52;;;;;;;5.13;4.30;;;20.10;45.40;;;;;;5042554;28;20655;-61
2020/12/08 12:24:17;;;;;;;5.38;4.13;;;20.10;45.50;;;;;;5043254;28;20129;-61
2020/12/08 12:26:43;;;;;;;5.47;4.38;;;20.10;45.60;;;;;;5043135;28;20047;-61
2020/12/08 12:29:08;;;;;;;4.47;3.97;;;20.00;45.50;;;;;;5042995;28;20065;-61
2020/12/08 12:31:34;;;;;;;3.85;3.45;;;20.00;45.60;;;;;;5042756;28;20013;-58
2020/12/08 12:33:59;;;;;;;4.63;3.78;;;19.90;45.70;;;;;;5043881;28;20033;-62
2020/12/08 12:36:25;;;;;;;4.28;3.88;;;19.90;45.70;;;;;;5043186;28;20679;-61
2020/12/08 12:38:50;;;;;;;4.30;3.72;;;19.80;45.80;;;;;;5043069;28;20021;-61
2020/12/08 12:41:27;;;;;;;4.72;4.32;;;19.80;45.90;;;;;;5042621;28;20036;-57